Terminal Aerodrome Forecast
Issued by NWS Lake Charles, LA

Home | Current Version | Previous Version | Text Only | Print | Product List | Glossary On
Versions: 1 2 3 4 5 6 7 8 9 10 11 12 13 14 15 16
000
FTUS44 KLCH 011300 AAA
TAFBPT
TAF AMD
KBPT 011331Z 0114/0212 11003KT P6SM VCSH SCT025
     FM011600 16010KT P6SM VCTS BKN035CB
     FM020100 15005KT P6SM BKN250=

USA.gov is the U.S. government's official web portal to all federal, state and local government web resources and services.